Time;durP1;ratioP1;P1;durP2;ratioP2;P2;SDS_P1;SDS_P2;PMS_P1;PMS_P2;Temp;Humidity;BMP_temperature;BMP_pressure;BME280_temperature;BME280_humidity;BME280_pressure;Samples;Min_cycle;Max_cycle;Signal;HPM_P1;HPM_P2
2023/01/08 00:01:15;;;;;;;;;;;;;;;;;;4973117;28;2032;-39
2023/01/08 00:03:42;;;;;;;;;;;;;;;;;;4973149;28;1856;-38
2023/01/08 00:06:11;;;;;;;;;;;;;;;;;;4972988;28;1701;-38
2023/01/08 00:08:38;;;;;;;;;;;;;;;;;;4972883;28;2137;-43
2023/01/08 00:11:06;;;;;;;;;;;;;;;;;;4972946;28;2015;-38
2023/01/08 00:13:33;;;;;;;;;;;;;;;;;;4972768;28;2000;-38
2023/01/08 00:16:04;;;;;;;;;;;;;;;;;;4972819;28;1842;-39
2023/01/08 00:18:32;;;;;;;;;;;;;;;;;;4972713;28;2060;-38
2023/01/08 00:20:59;;;;;;;;;;;;;;;;;;4972931;28;1591;-38
2023/01/08 00:23:26;;;;;;;;;;;;;;;;;;4973301;28;2215;-39
2023/01/08 00:25:54;;;;;;;;;;;;;;;;;;4973326;28;1673;-38
2023/01/08 00:28:22;;;;;;;;;;;;;;;;;;4972611;28;1503;-38
2023/01/08 00:30:49;;;;;;;;;;;;;;;;;;4972611;28;1839;-39
2023/01/08 00:33:16;;;;;;;;;;;;;;;;;;4972377;28;1966;-38
2023/01/08 00:35:43;;;;;;;;;;;;;;;;;;4973535;28;1613;-39
2023/01/08 00:38:11;;;;;;;;;;;;;;;;;;4982672;28;2121;-39
2023/01/08 00:40:39;;;;;;;;;;;;;;;;;;4972751;28;1098;-39
2023/01/08 00:43:06;;;;;;;;;;;;;;;;;;4972455;28;1368;-40
2023/01/08 00:45:33;;;;;;;;;;;;;;;;;;4972392;28;1812;-39
2023/01/08 00:48:01;;;;;;;;;;;;;;;;;;4972386;28;1855;-38
2023/01/08 00:50:28;;;;;;;;;;;;;;;;;;4971995;28;1706;-40
2023/01/08 00:52:55;;;;;;;;;;;;;;;;;;4972536;28;2133;-39
2023/01/08 00:55:22;;;;;;;;;;;;;;;;;;4972275;28;1990;-39
2023/01/08 00:57:50;;;;;;;;;;;;;;;;;;4972173;28;1979;-39
2023/01/08 01:00:17;;;;;;;;;;;;;;;;;;4972221;28;1779;-39
2023/01/08 01:02:44;;;;;;;;;;;;;;;;;;4972152;28;2126;-40
2023/01/08 01:05:14;;;;;;;;;;;;;;;;;;4972511;28;1576;-39
2023/01/08 01:07:41;;;;;;;;;;;;;;;;;;4972100;28;1745;-40
2023/01/08 01:10:09;;;;;;;;;;;;;;;;;;4972169;28;1841;-45
2023/01/08 01:12:37;;;;;;;;;;;;;;;;;;4972359;28;1677;-39
2023/01/08 01:15:09;;;;;;;;;;;;;;;;;;4971988;28;2002;-39
2023/01/08 01:17:39;;;;;;;;;;;;;;;;;;4971996;28;1980;-39
2023/01/08 01:20:07;;;;;;;;;;;;;;;;;;4971886;28;1401;-38
2023/01/08 01:22:34;;;;;;;;;;;;;;;;;;4972115;28;1893;-39
2023/01/08 01:25:02;;;;;;;;;;;;;;;;;;4970714;28;1827;-39
2023/01/08 01:27:29;;;;;;;;;;;;;;;;;;4971876;28;2144;-38
2023/01/08 01:29:57;;;;;;;;;;;;;;;;;;4972403;28;2393;-38
2023/01/08 01:32:24;;;;;;;;;;;;;;;;;;4971876;28;1961;-39
2023/01/08 01:34:52;;;;;;;;;;;;;;;;;;4971805;28;1832;-39
2023/01/08 01:37:19;;;;;;;;;;;;;;;;;;4985467;28;1983;-39
2023/01/08 01:39:46;;;;;;;;;;;;;;;;;;4991243;28;1950;-39
2023/01/08 01:45:00;;;;;;;;;;;;;;;;;;4991373;28;1810;-39
2023/01/08 01:47:29;;;;;;;;;;;;;;;;;;4991170;28;1358;-39
2023/01/08 01:50:06;;;;;;;;;;;;;;;;;;4991252;28;2252;-39
2023/01/08 01:52:35;;;;;;;;;;;;;;;;;;4991003;28;2102;-39
2023/01/08 01:55:04;;;;;;;;;;;;;;;;;;4991261;28;2050;-39
2023/01/08 01:57:32;;;;;;;;;;;;;;;;;;4991410;28;2005;-39
2023/01/08 02:00:00;;;;;;;;;;;;;;;;;;4991359;28;1576;-39
2023/01/08 02:02:37;;;;;;;;;;;;;;;;;;4993520;28;1943;-39
2023/01/08 02:05:05;;;;;;;;;;;;;;;;;;4994735;28;1855;-39
2023/01/08 02:07:32;;;;;;;;;;;;;;;;;;4977667;28;1742;-39
2023/01/08 02:10:08;;;;;;;;;;;;;;;;;;4975584;28;2153;-38
2023/01/08 02:12:57;;;;;;;;;;;;;;;;;;4975068;28;1824;-39
2023/01/08 02:15:42;;;;;;;;;;;;;;;;;;4974820;28;1725;-39
2023/01/08 02:18:13;;;;;;;;;;;;;;;;;;4975081;28;1920;-39
2023/01/08 02:20:56;;;;;;;;;;;;;;;;;;4974977;28;2006;-41
2023/01/08 02:23:32;;;;;;;;;;;;;;;;;;4975037;28;1456;-39
2023/01/08 02:26:14;;;;;;;;;;;;;;;;;;4974968;28;1931;-39
2023/01/08 02:28:45;;;;;;;;;;;;;;;;;;4974739;28;2038;-39
2023/01/08 02:31:13;;;;;;;;;;;;;;;;;;4974938;28;1876;-39
2023/01/08 02:33:40;;;;;;;;;;;;;;;;;;4974902;28;1730;-39
2023/01/08 02:36:17;;;;;;;;;;;;;;;;;;4978796;28;2261;-39
2023/01/08 02:38:50;;;;;;;;;;;;;;;;;;4994171;28;1979;-39
2023/01/08 02:41:21;;;;;;;;;;;;;;;;;;4994036;28;2027;-39
2023/01/08 02:43:51;;;;;;;;;;;;;;;;;;4993949;28;1731;-39
2023/01/08 02:46:24;;;;;;;;;;;;;;;;;;4993955;28;1934;-38
2023/01/08 02:48:59;;;;;;;;;;;;;;;;;;4993831;28;1753;-38
2023/01/08 02:51:29;;;;;;;;;;;;;;;;;;4993724;28;2025;-39
2023/01/08 02:53:58;;;;;;;;;;;;;;;;;;4990410;28;1604;-39
2023/01/08 02:56:33;;;;;;;;;;;;;;;;;;4974370;28;2173;-40
2023/01/08 02:59:02;;;;;;;;;;;;;;;;;;4974366;28;1923;-39
2023/01/08 03:01:29;;;;;;;;;;;;;;;;;;4974245;28;1827;-39
2023/01/08 03:04:03;;;;;;;;;;;;;;;;;;4974688;28;1939;-39
2023/01/08 03:06:32;;;;;;;;;;;;;;;;;;4974489;28;1666;-38
2023/01/08 03:09:08;;;;;;;;;;;;;;;;;;4974732;28;1494;-39
2023/01/08 03:11:38;;;;;;;;;;;;;;;;;;4974053;28;1636;-39
2023/01/08 03:14:05;;;;;;;;;;;;;;;;;;4973902;28;2252;-39
2023/01/08 03:16:37;;;;;;;;;;;;;;;;;;4973921;28;1859;-46
2023/01/08 03:19:08;;;;;;;;;;;;;;;;;;4974218;28;1908;-39
2023/01/08 03:21:36;;;;;;;;;;;;;;;;;;4974324;28;1856;-39
2023/01/08 03:24:04;;;;;;;;;;;;;;;;;;4973579;28;2353;-39
2023/01/08 03:26:31;;;;;;;;;;;;;;;;;;4974065;28;2149;-40
2023/01/08 03:29:00;;;;;;;;;;;;;;;;;;4973880;28;2248;-38
2023/01/08 03:31:28;;;;;;;;;;;;;;;;;;4973664;28;1786;-39
2023/01/08 03:33:55;;;;;;;;;;;;;;;;;;4973793;28;1559;-39
2023/01/08 03:36:24;;;;;;;;;;;;;;;;;;4979623;28;1977;-38
2023/01/08 03:38:55;;;;;;;;;;;;;;;;;;4993385;28;2051;-39
2023/01/08 03:41:23;;;;;;;;;;;;;;;;;;4992946;28;1564;-39
2023/01/08 03:43:50;;;;;;;;;;;;;;;;;;4992936;28;2282;-39
2023/01/08 03:46:25;;;;;;;;;;;;;;;;;;4992963;28;1265;-39
2023/01/08 03:48:54;;;;;;;;;;;;;;;;;;4992640;28;1856;-38
2023/01/08 03:51:22;;;;;;;;;;;;;;;;;;4992641;28;1982;-39
2023/01/08 03:53:51;;;;;;;;;;;;;;;;;;4992728;28;2164;-38
2023/01/08 03:56:18;;;;;;;;;;;;;;;;;;4993091;28;1708;-38
2023/01/08 03:58:45;;;;;;;;;;;;;;;;;;4973576;28;2496;-39
2023/01/08 04:01:13;;;;;;;;;;;;;;;;;;4973285;28;1965;-39
2023/01/08 04:03:47;;;;;;;;;;;;;;;;;;4973167;28;1799;-39
2023/01/08 04:06:14;;;;;;;;;;;;;;;;;;4972992;28;2208;-39
2023/01/08 04:08:41;;;;;;;;;;;;;;;;;;4973248;28;1540;-40
2023/01/08 04:11:08;;;;;;;;;;;;;;;;;;4972964;28;2141;-39
2023/01/08 04:13:35;;;;;;;;;;;;;;;;;;4972886;28;1791;-39
2023/01/08 04:16:04;;;;;;;;;;;;;;;;;;4972929;28;1574;-38
2023/01/08 04:18:31;;;;;;;;;;;;;;;;;;4972624;28;1937;-39
2023/01/08 04:20:58;;;;;;;;;;;;;;;;;;4972828;28;1979;-38
2023/01/08 04:23:25;;;;;;;;;;;;;;;;;;4972731;28;1910;-38
2023/01/08 04:25:52;;;;;;;;;;;;;;;;;;4972088;28;2168;-39
2023/01/08 04:28:20;;;;;;;;;;;;;;;;;;4972705;28;1417;-39
2023/01/08 04:30:47;;;;;;;;;;;;;;;;;;4973089;28;1854;-39
2023/01/08 04:33:14;;;;;;;;;;;;;;;;;;4972650;28;1836;-39
2023/01/08 04:35:41;;;;;;;;;;;;;;;;;;4973271;28;1836;-40
2023/01/08 04:38:09;;;;;;;;;;;;;;;;;;4992249;28;2130;-40
2023/01/08 04:40:37;;;;;;;;;;;;;;;;;;4991874;28;1604;-39
2023/01/08 04:43:04;;;;;;;;;;;;;;;;;;4991974;28;1835;-39
2023/01/08 04:45:32;;;;;;;;;;;;;;;;;;4991547;28;1744;-40
2023/01/08 04:47:59;;;;;;;;;;;;;;;;;;4991716;28;2168;-39
2023/01/08 04:50:26;;;;;;;;;;;;;;;;;;4991787;28;1725;-39
2023/01/08 04:52:53;;;;;;;;;;;;;;;;;;4991702;28;1573;-39
2023/01/08 04:55:20;;;;;;;;;;;;;;;;;;4991654;28;1513;-44
2023/01/08 04:57:47;;;;;;;;;;;;;;;;;;4991570;28;1698;-40
2023/01/08 05:00:15;;;;;;;;;;;;;;;;;;4990598;28;2057;-40
2023/01/08 05:02:42;;;;;;;;;;;;;;;;;;4992016;28;1662;-40
2023/01/08 05:05:10;;;;;;;;;;;;;;;;;;4991889;28;2094;-39
2023/01/08 05:07:37;;;;;;;;;;;;;;;;;;4991786;28;2172;-40
2023/01/08 05:10:04;;;;;;;;;;;;;;;;;;4991676;28;1712;-40
2023/01/08 05:12:32;;;;;;;;;;;;;;;;;;4991299;28;2100;-39
2023/01/08 05:15:00;;;;;;;;;;;;;;;;;;4991395;28;1881;-39
2023/01/08 05:17:27;;;;;;;;;;;;;;;;;;4991712;28;1879;-41
2023/01/08 05:19:54;;;;;;;;;;;;;;;;;;4990336;28;2051;-39
2023/01/08 05:22:21;;;;;;;;;;;;;;;;;;4991560;28;1704;-40
2023/01/08 05:24:48;;;;;;;;;;;;;;;;;;4991457;28;1569;-39
2023/01/08 05:27:16;;;;;;;;;;;;;;;;;;4991668;28;1839;-39
2023/01/08 05:29:43;;;;;;;;;;;;;;;;;;4991380;28;2033;-39
2023/01/08 05:32:13;;;;;;;;;;;;;;;;;;4991352;28;2180;-42
2023/01/08 05:34:40;;;;;;;;;;;;;;;;;;4991418;28;1941;-39
2023/01/08 05:37:07;;;;;;;;;;;;;;;;;;4981099;28;1445;-39
2023/01/08 05:39:35;;;;;;;;;;;;;;;;;;4975715;28;1895;-39
2023/01/08 05:42:03;;;;;;;;;;;;;;;;;;4975753;28;2247;-39
2023/01/08 05:44:30;;;;;;;;;;;;;;;;;;4975554;28;1936;-39
2023/01/08 05:46:57;;;;;;;;;;;;;;;;;;4975686;28;1823;-40
2023/01/08 05:49:24;;;;;;;;;;;;;;;;;;4975794;28;1625;-39
2023/01/08 05:51:52;;;;;;;;;;;;;;;;;;4971869;28;4494;-40
2023/01/08 05:54:19;;;;;;;;;;;;;;;;;;4975659;28;1724;-39
2023/01/08 05:56:46;;;;;;;;;;;;;;;;;;4975525;28;1675;-38
2023/01/08 05:59:13;;;;;;;;;;;;;;;;;;4975811;28;2126;-39
2023/01/08 06:01:40;;;;;;;;;;;;;;;;;;4975440;28;1801;-39
2023/01/08 06:04:07;;;;;;;;;;;;;;;;;;4975245;28;2130;-38
2023/01/08 06:06:35;;;;;;;;;;;;;;;;;;4975346;28;1880;-39
2023/01/08 06:09:02;;;;;;;;;;;;;;;;;;4974021;28;1789;-39
2023/01/08 06:11:29;;;;;;;;;;;;;;;;;;4975103;28;1724;-38
2023/01/08 06:13:56;;;;;;;;;;;;;;;;;;4972594;28;10416;-39
2023/01/08 06:16:24;;;;;;;;;;;;;;;;;;4992209;28;1850;-39
2023/01/08 06:18:52;;;;;;;;;;;;;;;;;;4994517;28;1916;-39
2023/01/08 06:21:19;;;;;;;;;;;;;;;;;;4995039;28;2010;-39
2023/01/08 06:23:46;;;;;;;;;;;;;;;;;;4994751;28;2122;-40
2023/01/08 06:26:13;;;;;;;;;;;;;;;;;;4994556;28;1797;-39
2023/01/08 06:28:41;;;;;;;;;;;;;;;;;;4994259;28;1227;-38
2023/01/08 06:31:08;;;;;;;;;;;;;;;;;;4994376;28;2005;-39
2023/01/08 06:33:35;;;;;;;;;;;;;;;;;;4994315;28;1975;-39
2023/01/08 06:36:03;;;;;;;;;;;;;;;;;;4990325;28;1662;-39
2023/01/08 06:38:31;;;;;;;;;;;;;;;;;;4974706;28;1983;-39
2023/01/08 06:41:02;;;;;;;;;;;;;;;;;;4973459;28;2230;-38
2023/01/08 06:43:29;;;;;;;;;;;;;;;;;;4974472;28;1963;-39
2023/01/08 06:45:57;;;;;;;;;;;;;;;;;;4974660;28;2300;-39
2023/01/08 06:48:24;;;;;;;;;;;;;;;;;;4973863;28;1723;-39
2023/01/08 06:50:52;;;;;;;;;;;;;;;;;;4974806;28;1772;-38
2023/01/08 06:53:19;;;;;;;;;;;;;;;;;;4973268;28;1621;-39
2023/01/08 06:55:46;;;;;;;;;;;;;;;;;;4974211;28;1523;-40
2023/01/08 06:58:13;;;;;;;;;;;;;;;;;;4973214;28;2443;-39
2023/01/08 07:00:42;;;;;;;;;;;;;;;;;;4974092;28;2123;-39
2023/01/08 07:03:09;;;;;;;;;;;;;;;;;;4974411;28;2148;-39
2023/01/08 07:05:36;;;;;;;;;;;;;;;;;;4974180;28;2014;-38
2023/01/08 07:08:03;;;;;;;;;;;;;;;;;;4974217;28;1635;-39
2023/01/08 07:10:30;;;;;;;;;;;;;;;;;;4973933;28;1575;-38
2023/01/08 07:12:58;;;;;;;;;;;;;;;;;;4974141;28;2118;-39
2023/01/08 07:15:25;;;;;;;;;;;;;;;;;;4974028;28;1834;-40
2023/01/08 07:17:52;;;;;;;;;;;;;;;;;;4974353;28;1804;-40
2023/01/08 07:20:19;;;;;;;;;;;;;;;;;;4974086;28;1980;-40
2023/01/08 07:22:46;;;;;;;;;;;;;;;;;;4973959;28;1476;-39
2023/01/08 07:25:13;;;;;;;;;;;;;;;;;;4973905;28;1958;-39
2023/01/08 07:27:41;;;;;;;;;;;;;;;;;;4973789;28;1427;-39
2023/01/08 07:30:09;;;;;;;;;;;;;;;;;;4973849;28;1890;-39
2023/01/08 07:32:50;;;;;;;;;;;;;;;;;;4973806;28;1765;-40
2023/01/08 07:35:17;;;;;;;;;;;;;;;;;;4973556;28;2002;-40
2023/01/08 07:37:45;;;;;;;;;;;;;;;;;;4973594;28;1999;-39
2023/01/08 07:40:13;;;;;;;;;;;;;;;;;;4973615;28;1973;-39
2023/01/08 07:42:40;;;;;;;;;;;;;;;;;;4973513;28;1936;-39
2023/01/08 07:45:07;;;;;;;;;;;;;;;;;;4973445;28;1791;-39
2023/01/08 07:47:34;;;;;;;;;;;;;;;;;;4973747;28;1425;-42
2023/01/08 07:50:02;;;;;;;;;;;;;;;;;;4973571;28;1570;-39
2023/01/08 07:52:29;;;;;;;;;;;;;;;;;;4973330;28;1696;-39
2023/01/08 07:54:59;;;;;;;;;;;;;;;;;;4973193;28;1950;-39
2023/01/08 07:57:28;;;;;;;;;;;;;;;;;;4973446;28;2011;-39
2023/01/08 07:59:55;;;;;;;;;;;;;;;;;;4972431;28;1949;-39
2023/01/08 08:02:22;;;;;;;;;;;;;;;;;;4973664;28;1987;-39
2023/01/08 08:04:49;;;;;;;;;;;;;;;;;;4973222;28;1857;-39
2023/01/08 08:07:16;;;;;;;;;;;;;;;;;;4973151;28;2188;-39
2023/01/08 08:09:43;;;;;;;;;;;;;;;;;;4973221;28;1537;-39
2023/01/08 08:12:10;;;;;;;;;;;;;;;;;;4973258;28;1608;-39
2023/01/08 08:14:38;;;;;;;;;;;;;;;;;;4972813;28;2000;-39
2023/01/08 08:17:05;;;;;;;;;;;;;;;;;;4972784;28;1733;-39
2023/01/08 08:19:32;;;;;;;;;;;;;;;;;;4972751;28;1979;-40
2023/01/08 08:21:59;;;;;;;;;;;;;;;;;;4972900;28;1735;-39
2023/01/08 08:24:27;;;;;;;;;;;;;;;;;;4973163;28;1923;-39
2023/01/08 08:26:54;;;;;;;;;;;;;;;;;;4973069;28;1856;-39
2023/01/08 08:29:21;;;;;;;;;;;;;;;;;;4972907;28;1811;-38
2023/01/08 08:31:51;;;;;;;;;;;;;;;;;;4972530;28;1573;-39
2023/01/08 08:34:21;;;;;;;;;;;;;;;;;;4972538;28;1674;-39
2023/01/08 08:36:48;;;;;;;;;;;;;;;;;;4972503;28;1669;-39
2023/01/08 08:39:15;;;;;;;;;;;;;;;;;;4972437;28;1906;-39
2023/01/08 08:41:42;;;;;;;;;;;;;;;;;;4971361;28;2182;-39
2023/01/08 08:44:11;;;;;;;;;;;;;;;;;;4972547;28;1619;-39
2023/01/08 08:46:38;;;;;;;;;;;;;;;;;;4972440;28;1909;-39
2023/01/08 08:49:05;;;;;;;;;;;;;;;;;;4972482;28;2036;-39
2023/01/08 08:51:32;;;;;;;;;;;;;;;;;;4972199;28;1773;-38
2023/01/08 08:53:59;;;;;;;;;;;;;;;;;;4972735;28;1735;-39
2023/01/08 08:56:28;;;;;;;;;;;;;;;;;;4972406;28;2232;-41
2023/01/08 08:58:57;;;;;;;;;;;;;;;;;;4972344;28;2046;-39
2023/01/08 09:01:24;;;;;;;;;;;;;;;;;;4972284;28;1923;-39
2023/01/08 09:03:51;;;;;;;;;;;;;;;;;;4972254;28;2008;-39
2023/01/08 09:06:18;;;;;;;;;;;;;;;;;;4972313;28;1706;-38
2023/01/08 09:08:45;;;;;;;;;;;;;;;;;;4972271;28;1854;-39
2023/01/08 09:11:13;;;;;;;;;;;;;;;;;;4971956;28;2207;-40
2023/01/08 09:13:40;;;;;;;;;;;;;;;;;;4972294;28;1247;-39
2023/01/08 09:16:07;;;;;;;;;;;;;;;;;;4971894;28;1867;-40
2023/01/08 09:18:34;;;;;;;;;;;;;;;;;;4972022;28;1798;-40
2023/01/08 09:21:05;;;;;;;;;;;;;;;;;;4972333;28;2201;-39
2023/01/08 09:23:33;;;;;;;;;;;;;;;;;;4972068;28;1916;-39
2023/01/08 09:26:01;;;;;;;;;;;;;;;;;;4972359;28;2183;-39
2023/01/08 09:28:30;;;;;;;;;;;;;;;;;;4972296;28;1968;-40
2023/01/08 09:31:02;;;;;;;;;;;;;;;;;;4972110;28;1605;-39
2023/01/08 09:33:30;;;;;;;;;;;;;;;;;;4972210;28;1493;-39
2023/01/08 09:35:57;;;;;;;;;;;;;;;;;;4972307;28;2233;-39
2023/01/08 09:38:24;;;;;;;;;;;;;;;;;;4972039;28;2356;-39
2023/01/08 09:41:00;;;;;;;;;;;;;;;;;;4971794;28;1910;-40
2023/01/08 09:43:30;;;;;;;;;;;;;;;;;;4971918;28;1494;-39
2023/01/08 09:46:05;;;;;;;;;;;;;;;;;;4971893;28;1374;-39
2023/01/08 09:48:34;;;;;;;;;;;;;;;;;;4972031;28;2056;-39
2023/01/08 09:51:02;;;;;;;;;;;;;;;;;;4971971;28;1371;-39
2023/01/08 09:53:29;;;;;;;;;;;;;;;;;;4971896;28;1670;-39
2023/01/08 09:56:00;;;;;;;;;;;;;;;;;;4971532;28;1843;-38
2023/01/08 09:58:38;;;;;;;;;;;;;;;;;;4971618;28;2082;-39
2023/01/08 10:01:05;;;;;;;;;;;;;;;;;;4971548;28;2154;-39
2023/01/08 10:04:08;;;;;;;;;;;;;;;;;;4971966;28;1988;-39
2023/01/08 10:06:39;;;;;;;;;;;;;;;;;;4893295;29;1990;-39
2023/01/08 10:09:11;;;;;;;;;;;;;;;;;;4958995;28;1500;-39
2023/01/08 10:11:41;;;;;;;;;;;;;;;;;;4971512;28;2131;-39
2023/01/08 10:14:20;;;;;;;;;;;;;;;;;;4971726;28;1588;-38
2023/01/08 10:16:50;;;;;;;;;;;;;;;;;;4971183;28;1824;-39
2023/01/08 10:19:17;;;;;;;;;;;;;;;;;;4971793;28;1564;-39
2023/01/08 10:21:44;;;;;;;;;;;;;;;;;;4971606;28;1973;-40
2023/01/08 10:24:11;;;;;;;;;;;;;;;;;;4974789;28;1646;-39
2023/01/08 10:26:38;;;;;;;;;;;;;;;;;;4974943;28;2091;-40
2023/01/08 10:29:08;;;;;;;;;;;;;;;;;;4975052;28;1984;-39
2023/01/08 10:31:57;;;;;;;;;;;;;;;;;;4975045;28;1687;-39
2023/01/08 10:34:26;;;;;;;;;;;;;;;;;;4973554;28;2235;-39
2023/01/08 10:36:53;;;;;;;;;;;;;;;;;;4973464;28;1899;-39
2023/01/08 10:39:26;;;;;;;;;;;;;;;;;;4974698;28;1699;-39
2023/01/08 10:41:57;;;;;;;;;;;;;;;;;;4974678;28;1576;-39
2023/01/08 10:44:25;;;;;;;;;;;;;;;;;;4974283;28;2118;-39
2023/01/08 10:46:53;;;;;;;;;;;;;;;;;;4974700;28;2158;-39
2023/01/08 10:49:35;;;;;;;;;;;;;;;;;;4974477;28;1543;-40
2023/01/08 10:52:03;;;;;;;;;;;;;;;;;;4974795;28;2406;-39
2023/01/08 10:54:32;;;;;;;;;;;;;;;;;;4974664;28;1858;-39
2023/01/08 10:56:59;;;;;;;;;;;;;;;;;;4974662;28;1649;-40
2023/01/08 10:59:28;;;;;;;;;;;;;;;;;;4974559;28;1545;-39
2023/01/08 11:01:58;;;;;;;;;;;;;;;;;;4974418;28;1914;-39
2023/01/08 11:04:34;;;;;;;;;;;;;;;;;;4973000;28;1348;-39
2023/01/08 11:07:03;;;;;;;;;;;;;;;;;;4974455;28;1870;-39
2023/01/08 11:09:32;;;;;;;;;;;;;;;;;;4972903;28;1949;-39
2023/01/08 11:12:00;;;;;;;;;;;;;;;;;;4973815;28;1505;-40
2023/01/08 11:14:31;;;;;;;;;;;;;;;;;;4973538;28;2125;-39
2023/01/08 11:16:58;;;;;;;;;;;;;;;;;;4956778;28;2233;-39
2023/01/08 11:19:26;;;;;;;;;;;;;;;;;;4972591;28;1938;-39
2023/01/08 11:21:56;;;;;;;;;;;;;;;;;;4972585;28;1910;-40
2023/01/08 11:24:29;;;;;;;;;;;;;;;;;;4973999;28;1600;-39
2023/01/08 11:27:15;;;;;;;;;;;;;;;;;;4974057;28;1915;-39
2023/01/08 11:29:43;;;;;;;;;;;;;;;;;;4973742;28;1776;-39
2023/01/08 11:32:22;;;;;;;;;;;;;;;;;;4973983;28;1285;-40
2023/01/08 11:34:52;;;;;;;;;;;;;;;;;;4973879;28;1924;-39
2023/01/08 11:37:28;;;;;;;;;;;;;;;;;;4973583;28;1565;-39
2023/01/08 11:39:55;;;;;;;;;;;;;;;;;;4973417;28;1985;-39
2023/01/08 11:42:36;;;;;;;;;;;;;;;;;;4973547;28;1823;-39
2023/01/08 11:45:36;;;;;;;;;;;;;;;;;;4973837;28;1732;-40
2023/01/08 11:48:18;;;;;;;;;;;;;;;;;;4973765;28;2008;-39
2023/01/08 11:50:58;;;;;;;;;;;;;;;;;;4973630;28;1441;-39
2023/01/08 11:53:29;;;;;;;;;;;;;;;;;;4973315;28;1593;-39
2023/01/08 11:56:03;;;;;;;;;;;;;;;;;;4973138;28;1729;-38
2023/01/08 11:58:50;;;;;;;;;;;;;;;;;;4973356;28;1777;-39
2023/01/08 12:01:23;;;;;;;;;;;;;;;;;;4973002;28;2092;-41
2023/01/08 12:03:59;;;;;;;;;;;;;;;;;;4973136;28;2181;-38
2023/01/08 12:06:53;;;;;;;;;;;;;;;;;;4973101;28;1967;-39
2023/01/08 12:09:27;;;;;;;;;;;;;;;;;;4971884;28;2324;-39
2023/01/08 12:12:18;;;;;;;;;;;;;;;;;;4973161;28;2000;-39
2023/01/08 12:14:54;;;;;;;;;;;;;;;;;;4972842;28;2106;-38
2023/01/08 12:17:32;;;;;;;;;;;;;;;;;;4972947;28;1643;-39
2023/01/08 12:20:14;;;;;;;;;;;;;;;;;;4972780;28;1931;-40
2023/01/08 12:22:54;;;;;;;;;;;;;;;;;;4972962;28;1680;-38
2023/01/08 12:25:24;;;;;;;;;;;;;;;;;;4972982;28;1875;-39
2023/01/08 12:28:03;;;;;;;;;;;;;;;;;;4972744;28;1532;-39
2023/01/08 12:30:36;;;;;;;;;;;;;;;;;;4972626;28;1665;-39
2023/01/08 12:33:07;;;;;;;;;;;;;;;;;;4972339;28;2109;-39
2023/01/08 12:35:47;;;;;;;;;;;;;;;;;;4971572;28;2502;-38
2023/01/08 12:38:34;;;;;;;;;;;;;;;;;;4953106;28;1680;-39
2023/01/08 12:41:09;;;;;;;;;;;;;;;;;;4953047;28;1908;-38
2023/01/08 12:43:50;;;;;;;;;;;;;;;;;;4953194;28;1617;-38
2023/01/08 12:46:18;;;;;;;;;;;;;;;;;;4952867;28;1693;-39
2023/01/08 12:48:47;;;;;;;;;;;;;;;;;;4953259;28;1548;-39
2023/01/08 12:51:27;;;;;;;;;;;;;;;;;;4953265;28;1478;-39
2023/01/08 12:54:00;;;;;;;;;;;;;;;;;;4952931;29;1624;-39
2023/01/08 12:56:32;;;;;;;;;;;;;;;;;;4952922;28;1263;-38
2023/01/08 12:58:59;;;;;;;;;;;;;;;;;;4967993;28;1772;-39
2023/01/08 13:01:29;;;;;;;;;;;;;;;;;;4952880;28;1912;-38
2023/01/08 13:03:57;;;;;;;;;;;;;;;;;;4953205;28;2016;-38
2023/01/08 13:06:24;;;;;;;;;;;;;;;;;;4952985;28;1756;-40
2023/01/08 13:08:54;;;;;;;;;;;;;;;;;;4971361;28;1745;-39
2023/01/08 13:11:25;;;;;;;;;;;;;;;;;;4972421;28;1859;-39
2023/01/08 13:14:19;;;;;;;;;;;;;;;;;;4970250;28;2001;-39
2023/01/08 13:16:46;;;;;;;;;;;;;;;;;;4968971;28;1507;-40
2023/01/08 13:19:33;;;;;;;;;;;;;;;;;;4972389;28;1913;-40
2023/01/08 13:22:01;;;;;;;;;;;;;;;;;;4971777;28;1908;-44
2023/01/08 13:24:28;;;;;;;;;;;;;;;;;;4972561;28;1892;-40
2023/01/08 13:26:56;;;;;;;;;;;;;;;;;;4970899;28;1582;-39
2023/01/08 13:29:37;;;;;;;;;;;;;;;;;;4972027;28;1772;-39
2023/01/08 13:32:22;;;;;;;;;;;;;;;;;;4972210;28;1456;-40
2023/01/08 13:35:10;;;;;;;;;;;;;;;;;;4972069;28;2344;-39
2023/01/08 13:37:37;;;;;;;;;;;;;;;;;;4971275;28;1740;-38
2023/01/08 13:40:24;;;;;;;;;;;;;;;;;;4972126;28;2170;-40
2023/01/08 13:42:51;;;;;;;;;;;;;;;;;;4971677;28;2121;-38
2023/01/08 13:45:18;;;;;;;;;;;;;;;;;;4971940;28;1924;-39
2023/01/08 13:47:45;;;;;;;;;;;;;;;;;;4972205;28;1862;-39
2023/01/08 13:50:21;;;;;;;;;;;;;;;;;;4972112;28;1698;-39
2023/01/08 13:52:55;;;;;;;;;;;;;;;;;;4971987;28;1998;-39
2023/01/08 13:55:27;;;;;;;;;;;;;;;;;;4971838;28;1714;-38
2023/01/08 13:57:56;;;;;;;;;;;;;;;;;;4973535;28;2116;-39
2023/01/08 14:00:25;;;;;;;;;;;;;;;;;;4974154;28;2158;-39
2023/01/08 14:02:53;;;;;;;;;;;;;;;;;;4975431;28;1886;-39
2023/01/08 14:05:33;;;;;;;;;;;;;;;;;;4975543;28;1995;-40
2023/01/08 14:08:00;;;;;;;;;;;;;;;;;;4975144;28;2034;-49
2023/01/08 14:10:28;;;;;;;;;;;;;;;;;;4975420;28;1507;-39
2023/01/08 14:13:03;;;;;;;;;;;;;;;;;;4975451;28;1699;-39
2023/01/08 14:15:32;;;;;;;;;;;;;;;;;;4975177;28;1969;-39
2023/01/08 14:18:00;;;;;;;;;;;;;;;;;;4975141;28;1868;-39
2023/01/08 14:20:34;;;;;;;;;;;;;;;;;;4974919;28;2272;-39
2023/01/08 14:23:07;;;;;;;;;;;;;;;;;;4974988;28;2004;-38
2023/01/08 14:25:34;;;;;;;;;;;;;;;;;;4973618;28;2038;-40
2023/01/08 14:28:03;;;;;;;;;;;;;;;;;;4975165;28;2028;-39
2023/01/08 14:30:35;;;;;;;;;;;;;;;;;;4975004;28;1592;-39
2023/01/08 14:33:02;;;;;;;;;;;;;;;;;;4973754;28;2136;-39
2023/01/08 14:35:33;;;;;;;;;;;;;;;;;;4975007;28;1868;-39
2023/01/08 14:38:01;;;;;;;;;;;;;;;;;;4973573;28;2015;-40
2023/01/08 14:40:35;;;;;;;;;;;;;;;;;;4974678;28;1972;-39
2023/01/08 14:43:05;;;;;;;;;;;;;;;;;;4974744;28;2012;-39
2023/01/08 14:45:44;;;;;;;;;;;;;;;;;;4973005;28;1851;-39
2023/01/08 14:48:23;;;;;;;;;;;;;;;;;;4974760;28;2004;-39
2023/01/08 14:51:00;;;;;;;;;;;;;;;;;;4974898;28;2009;-39
2023/01/08 14:53:30;;;;;;;;;;;;;;;;;;4974635;28;2081;-38
2023/01/08 14:55:58;;;;;;;;;;;;;;;;;;4974394;28;1818;-39
2023/01/08 14:58:28;;;;;;;;;;;;;;;;;;4974234;28;2161;-39
2023/01/08 15:01:25;;;;;;;;;;;;;;;;;;4974470;28;2156;-40
2023/01/08 15:04:03;;;;;;;;;;;;;;;;;;4958459;28;1956;-38
2023/01/08 15:06:32;;;;;;;;;;;;;;;;;;4974398;28;1678;-39
2023/01/08 15:08:59;;;;;;;;;;;;;;;;;;4973881;28;1962;-40
2023/01/08 15:11:29;;;;;;;;;;;;;;;;;;4972998;28;1632;-39
2023/01/08 15:13:57;;;;;;;;;;;;;;;;;;4974257;28;1982;-39
2023/01/08 15:16:37;;;;;;;;;;;;;;;;;;4974616;28;1903;-40
2023/01/08 15:19:18;;;;;;;;;;;;;;;;;;4973926;28;1619;-40
2023/01/08 15:21:49;;;;;;;;;;;;;;;;;;4973740;28;1935;-41
2023/01/08 15:24:23;;;;;;;;;;;;;;;;;;4973997;28;1968;-39
2023/01/08 15:26:51;;;;;;;;;;;;;;;;;;4974068;28;1533;-39
2023/01/08 15:29:21;;;;;;;;;;;;;;;;;;4973738;28;1916;-39
2023/01/08 15:31:48;;;;;;;;;;;;;;;;;;4974073;28;2018;-40
2023/01/08 15:34:18;;;;;;;;;;;;;;;;;;4973807;28;1937;-39
2023/01/08 15:36:46;;;;;;;;;;;;;;;;;;4973697;28;1678;-39
2023/01/08 15:39:13;;;;;;;;;;;;;;;;;;4973996;28;1891;-40
2023/01/08 15:44:26;;;;;;;;;;;;;;;;;;4973330;28;1698;-40
2023/01/08 15:46:54;;;;;;;;;;;;;;;;;;4973790;28;2359;-40
2023/01/08 15:49:21;;;;;;;;;;;;;;;;;;4973929;28;1809;-39
2023/01/08 15:51:49;;;;;;;;;;;;;;;;;;4973383;28;1742;-39
2023/01/08 15:54:18;;;;;;;;;;;;;;;;;;4973409;28;2145;-39
2023/01/08 15:56:45;;;;;;;;;;;;;;;;;;4973397;28;1651;-39
2023/01/08 15:59:12;;;;;;;;;;;;;;;;;;4973577;28;1655;-40
2023/01/08 16:01:39;;;;;;;;;;;;;;;;;;4973023;28;1973;-39
2023/01/08 16:04:07;;;;;;;;;;;;;;;;;;4973228;28;2038;-39
2023/01/08 16:06:35;;;;;;;;;;;;;;;;;;4973168;28;1809;-40
2023/01/08 16:09:02;;;;;;;;;;;;;;;;;;4973317;28;1947;-40
2023/01/08 16:11:29;;;;;;;;;;;;;;;;;;4973196;28;2017;-39
2023/01/08 16:13:56;;;;;;;;;;;;;;;;;;4973447;28;1974;-39
2023/01/08 16:16:26;;;;;;;;;;;;;;;;;;4973279;28;1735;-40
2023/01/08 16:18:53;;;;;;;;;;;;;;;;;;4973201;28;1847;-40
2023/01/08 16:21:20;;;;;;;;;;;;;;;;;;4971755;28;2065;-39
2023/01/08 16:23:48;;;;;;;;;;;;;;;;;;4972810;28;1639;-39
2023/01/08 16:26:17;;;;;;;;;;;;;;;;;;4972898;28;1606;-39
2023/01/08 16:28:44;;;;;;;;;;;;;;;;;;4972896;28;2174;-39
2023/01/08 16:31:11;;;;;;;;;;;;;;;;;;4972859;28;1820;-39
2023/01/08 16:33:39;;;;;;;;;;;;;;;;;;4972807;28;1977;-40
2023/01/08 16:36:07;;;;;;;;;;;;;;;;;;4972541;28;1343;-39
2023/01/08 16:38:35;;;;;;;;;;;;;;;;;;4972721;28;2156;-39
2023/01/08 16:41:03;;;;;;;;;;;;;;;;;;4972452;28;1934;-38
2023/01/08 16:43:37;;;;;;;;;;;;;;;;;;4972323;28;1469;-39
2023/01/08 16:46:09;;;;;;;;;;;;;;;;;;4972453;28;1979;-39
2023/01/08 16:48:36;;;;;;;;;;;;;;;;;;4972827;28;1781;-39
2023/01/08 16:51:04;;;;;;;;;;;;;;;;;;4972651;28;1521;-39
2023/01/08 16:53:32;;;;;;;;;;;;;;;;;;4972421;28;2266;-38
2023/01/08 16:55:59;;;;;;;;;;;;;;;;;;4972783;28;1501;-39
2023/01/08 16:58:28;;;;;;;;;;;;;;;;;;4972395;28;1966;-39
2023/01/08 17:00:55;;;;;;;;;;;;;;;;;;4972165;28;1421;-40
2023/01/08 17:03:23;;;;;;;;;;;;;;;;;;4972246;28;1905;-39
2023/01/08 17:05:50;;;;;;;;;;;;;;;;;;4972313;28;2038;-40
2023/01/08 17:08:21;;;;;;;;;;;;;;;;;;4972617;28;1523;-40
2023/01/08 17:10:57;;;;;;;;;;;;;;;;;;4972443;28;2010;-40
2023/01/08 17:13:24;;;;;;;;;;;;;;;;;;4972295;28;1958;-40
2023/01/08 17:15:52;;;;;;;;;;;;;;;;;;4972198;28;1996;-40
2023/01/08 17:18:20;;;;;;;;;;;;;;;;;;4972205;28;1758;-40
2023/01/08 17:20:53;;;;;;;;;;;;;;;;;;4972162;28;1109;-40
2023/01/08 17:23:25;;;;;;;;;;;;;;;;;;4972005;28;1910;-39
2023/01/08 17:25:57;;;;;;;;;;;;;;;;;;4971896;28;1763;-39
2023/01/08 17:28:27;;;;;;;;;;;;;;;;;;4972163;28;1971;-40